KCUH/CUH METAR and TAF weather

Enter ICAO airport designator
Station Type Date Time Source
KCUH METAR 2018/10/21 03:35 UTC NOAA

KCUH 210335Z AUTO 00000KT 10SM CLR 10/06 A3034 RMK AO2 T00950061


Station Type Date Time Source
KCUH Decoded METAR 2018/10/21 03:35 UTC NOAA

Cushing, Cushing Municipal Airport, OK, United States (KCUH) 35-56-59N 096-46-22W
Oct 20, 2018 - 11:35 PM EDT / 2018.10.21 0335 UTC
Wind: Calm:0
Visibility: 10 mile(s):0
Sky conditions: clear
Temperature: 49.1 F (9.5 C)
Dew Point: 43.0 F (6.1 C)
Relative Humidity: 79%
Pressure (altimeter): 30.34 in. Hg (1027 hPa)
ob: KCUH 210335Z AUTO 00000KT 10SM CLR 10/06 A3034 RMK AO2 T00950061
cycle: 3

Station Type Date Time Source
KCUH TAF UTC NOAA

Error!


Example: see airport list